Time;durP1;ratioP1;P1;durP2;ratioP2;P2;SDS_P1;SDS_P2;PMS_P1;PMS_P2;Temp;Humidity;BMP_temperature;BMP_pressure;BME280_temperature;BME280_humidity;BME280_pressure;Samples;Min_cycle;Max_cycle;Signal;HPM_P1;HPM_P2
2022/07/29 00:00:08;;;;;;;;;;;;;;;;;;4955328;28;19977;-79
2022/07/29 00:02:34;;;;;;;;;;;;;;;;;;4946054;29;20038;-79
2022/07/29 00:04:59;;;;;;;;;;;;;;;;;;4955244;28;20290;-79
2022/07/29 00:07:24;;;;;;;;;;;;;;;;;;4955379;29;19969;-78
2022/07/29 00:09:50;;;;;;;;;;;;;;;;;;4954838;29;19910;-79
2022/07/29 00:12:15;;;;;;;;;;;;;;;;;;4939141;29;19918;-78
2022/07/29 00:14:40;;;;;;;;;;;;;;;;;;4954583;29;20005;-78
2022/07/29 00:17:06;;;;;;;;;;;;;;;;;;4942328;29;19919;-78
2022/07/29 00:19:31;;;;;;;;;;;;;;;;;;4962962;28;20413;-78
2022/07/29 00:21:56;;;;;;;;;;;;;;;;;;4954732;29;19915;-78
2022/07/29 00:24:22;;;;;;;;;;;;;;;;;;4954542;28;19914;-78
2022/07/29 00:26:47;;;;;;;;;;;;;;;;;;4954680;29;19918;-77
2022/07/29 00:29:12;;;;;;;;;;;;;;;;;;4955706;28;19914;-77
2022/07/29 00:31:38;;;;;;;;;;;;;;;;;;4938753;29;19911;-79
2022/07/29 00:34:03;;;;;;;;;;;;;;;;;;4937343;29;20390;-78
2022/07/29 00:36:28;;;;;;;;;;;;;;;;;;4962142;28;19970;-79
2022/07/29 00:38:54;;;;;;;;;;;;;;;;;;4954701;29;19914;-78
2022/07/29 00:41:19;;;;;;;;;;;;;;;;;;4954056;29;20281;-78
2022/07/29 00:43:45;;;;;;;;;;;;;;;;;;4955283;29;20317;-78
2022/07/29 00:46:10;;;;;;;;;;;;;;;;;;4954258;29;20066;-79
2022/07/29 00:48:35;;;;;;;;;;;;;;;;;;4954283;29;19914;-78
2022/07/29 00:51:01;;;;;;;;;;;;;;;;;;4954327;28;19921;-77
2022/07/29 00:53:26;;;;;;;;;;;;;;;;;;4953805;29;19914;-80
2022/07/29 00:55:52;;;;;;;;;;;;;;;;;;4954239;29;20468;-77
2022/07/29 00:58:17;;;;;;;;;;;;;;;;;;4953926;29;20338;-77
2022/07/29 01:00:42;;;;;;;;;;;;;;;;;;4938117;29;20313;-78
2022/07/29 01:03:08;;;;;;;;;;;;;;;;;;4954059;29;19914;-78
2022/07/29 01:05:33;;;;;;;;;;;;;;;;;;4953039;28;19997;-78
2022/07/29 01:07:59;;;;;;;;;;;;;;;;;;4945660;29;20283;-78
2022/07/29 01:10:24;;;;;;;;;;;;;;;;;;4937668;29;19915;-78
2022/07/29 01:12:50;;;;;;;;;;;;;;;;;;4937553;28;19977;-76
2022/07/29 01:15:15;;;;;;;;;;;;;;;;;;4954076;29;19961;-78
2022/07/29 01:17:40;;;;;;;;;;;;;;;;;;4937643;29;20326;-78
2022/07/29 01:20:06;;;;;;;;;;;;;;;;;;4952442;29;19922;-79
2022/07/29 01:22:31;;;;;;;;;;;;;;;;;;4945280;29;20333;-78
2022/07/29 01:24:57;;;;;;;;;;;;;;;;;;4937897;29;19915;-79
2022/07/29 01:27:22;;;;;;;;;;;;;;;;;;4953559;29;20338;-79
2022/07/29 01:29:48;;;;;;;;;;;;;;;;;;4937553;29;19922;-78
2022/07/29 01:32:13;;;;;;;;;;;;;;;;;;4921572;29;20013;-78
2022/07/29 01:34:38;;;;;;;;;;;;;;;;;;4937649;29;19919;-79
2022/07/29 01:37:04;;;;;;;;;;;;;;;;;;4936227;29;19918;-79
2022/07/29 01:39:29;;;;;;;;;;;;;;;;;;4953127;29;19940;-78
2022/07/29 01:41:55;;;;;;;;;;;;;;;;;;4921457;29;19918;-78
2022/07/29 01:44:20;;;;;;;;;;;;;;;;;;4954734;28;19915;-77
2022/07/29 01:46:45;;;;;;;;;;;;;;;;;;4953249;28;20351;-77
2022/07/29 01:49:11;;;;;;;;;;;;;;;;;;4954566;28;19921;-78
2022/07/29 01:51:36;;;;;;;;;;;;;;;;;;4954584;28;20005;-77
2022/07/29 01:54:01;;;;;;;;;;;;;;;;;;4952527;28;19926;-79
2022/07/29 01:56:29;;;;;;;;;;;;;;;;;;4952882;29;20433;-79
2022/07/29 01:58:54;;;;;;;;;;;;;;;;;;4954704;28;19915;-78
2022/07/29 02:01:20;;;;;;;;;;;;;;;;;;4953455;29;20006;-78
2022/07/29 02:03:45;;;;;;;;;;;;;;;;;;4953038;29;19970;-79
2022/07/29 02:06:11;;;;;;;;;;;;;;;;;;4937576;29;20330;-79
2022/07/29 02:08:36;;;;;;;;;;;;;;;;;;4953362;28;19914;-78
2022/07/29 02:11:01;;;;;;;;;;;;;;;;;;4953518;28;19918;-78
2022/07/29 02:13:27;;;;;;;;;;;;;;;;;;4953068;29;20348;-78
2022/07/29 02:15:52;;;;;;;;;;;;;;;;;;4953191;29;19925;-78
2022/07/29 02:18:17;;;;;;;;;;;;;;;;;;4937205;29;20379;-79
2022/07/29 02:20:43;;;;;;;;;;;;;;;;;;4954285;28;19922;-79
2022/07/29 02:23:08;;;;;;;;;;;;;;;;;;4954079;28;20319;-77
2022/07/29 02:25:34;;;;;;;;;;;;;;;;;;4955276;28;19985;-79
2022/07/29 02:28:00;;;;;;;;;;;;;;;;;;4960189;28;19918;-78
2022/07/29 02:30:25;;;;;;;;;;;;;;;;;;4960353;28;19926;-77
2022/07/29 02:32:51;;;;;;;;;;;;;;;;;;4959058;28;19914;-78
2022/07/29 02:35:16;;;;;;;;;;;;;;;;;;4959095;29;20301;-78
2022/07/29 02:37:41;;;;;;;;;;;;;;;;;;4959036;29;19976;-78
2022/07/29 02:40:07;;;;;;;;;;;;;;;;;;4960244;28;19980;-78
2022/07/29 02:42:32;;;;;;;;;;;;;;;;;;4965707;28;20297;-77
2022/07/29 02:44:57;;;;;;;;;;;;;;;;;;4960168;28;19914;-77
2022/07/29 02:47:23;;;;;;;;;;;;;;;;;;4958563;29;20396;-78
2022/07/29 02:49:51;;;;;;;;;;;;;;;;;;4943263;29;19914;-78
2022/07/29 02:52:16;;;;;;;;;;;;;;;;;;4959028;28;19914;-79
2022/07/29 02:54:41;;;;;;;;;;;;;;;;;;4958573;28;19961;-78
2022/07/29 02:57:07;;;;;;;;;;;;;;;;;;4957763;28;20421;-80
2022/07/29 02:59:32;;;;;;;;;;;;;;;;;;4951271;28;19914;-79
2022/07/29 03:01:57;;;;;;;;;;;;;;;;;;4958607;28;20294;-78
2022/07/29 03:04:23;;;;;;;;;;;;;;;;;;4958598;28;19921;-78
2022/07/29 03:06:48;;;;;;;;;;;;;;;;;;4959930;28;19921;-78
2022/07/29 03:09:13;;;;;;;;;;;;;;;;;;4958783;28;19922;-78
2022/07/29 03:11:39;;;;;;;;;;;;;;;;;;4975646;23;20249;-77
2022/07/29 03:14:04;;;;;;;;;;;;;;;;;;5009412;28;20441;-76
2022/07/29 03:16:30;;;;;;;;;;;;;;;;;;4998518;28;19993;-77
2022/07/29 03:18:55;;;;;;;;;;;;;;;;;;4981612;28;19913;-77
2022/07/29 03:21:21;;;;;;;;;;;;;;;;;;4997761;28;20336;-79
2022/07/29 03:23:46;;;;;;;;;;;;;;;;;;4965426;28;20000;-79
2022/07/29 03:26:12;;;;;;;;;;;;;;;;;;4981408;28;19914;-79
2022/07/29 03:28:37;;;;;;;;;;;;;;;;;;4997895;28;19918;-79
2022/07/29 03:31:02;;;;;;;;;;;;;;;;;;4989216;28;19914;-77
2022/07/29 03:33:30;;;;;;;;;;;;;;;;;;4993814;28;19920;-78
2022/07/29 03:35:55;;;;;;;;;;;;;;;;;;4978889;28;20318;-77
2022/07/29 03:38:21;;;;;;;;;;;;;;;;;;4975246;28;19972;-80
2022/07/29 03:40:46;;;;;;;;;;;;;;;;;;4975371;28;19968;-79
2022/07/29 03:43:11;;;;;;;;;;;;;;;;;;4975880;28;20016;-77
2022/07/29 03:45:37;;;;;;;;;;;;;;;;;;4959180;28;19914;-79
2022/07/29 03:48:03;;;;;;;;;;;;;;;;;;4966069;28;19914;-78
2022/07/29 03:50:28;;;;;;;;;;;;;;;;;;4978210;28;20461;-78
2022/07/29 03:52:54;;;;;;;;;;;;;;;;;;4977840;28;20377;-78
2022/07/29 03:55:19;;;;;;;;;;;;;;;;;;4995477;28;19914;-78
2022/07/29 03:57:45;;;;;;;;;;;;;;;;;;4994249;28;20389;-78
2022/07/29 04:00:11;;;;;;;;;;;;;;;;;;4979504;28;19924;-78
2022/07/29 04:02:36;;;;;;;;;;;;;;;;;;4980626;28;19980;-77
2022/07/29 04:05:02;;;;;;;;;;;;;;;;;;5005956;28;19913;-78
2022/07/29 04:07:27;;;;;;;;;;;;;;;;;;5002514;28;19914;-79
2022/07/29 04:09:53;;;;;;;;;;;;;;;;;;4999380;28;20291;-78
2022/07/29 04:12:20;;;;;;;;;;;;;;;;;;4994209;28;20373;-77
2022/07/29 04:14:46;;;;;;;;;;;;;;;;;;4993999;28;19914;-78
2022/07/29 04:17:11;;;;;;;;;;;;;;;;;;4994214;28;19917;-79
2022/07/29 04:19:37;;;;;;;;;;;;;;;;;;4993034;28;20351;-77
2022/07/29 04:22:02;;;;;;;;;;;;;;;;;;4983402;28;19914;-77
2022/07/29 04:24:28;;;;;;;;;;;;;;;;;;4977966;28;20255;-79
2022/07/29 04:26:53;;;;;;;;;;;;;;;;;;4962109;28;20340;-77
2022/07/29 04:29:19;;;;;;;;;;;;;;;;;;4945183;28;20381;-78
2022/07/29 04:31:45;;;;;;;;;;;;;;;;;;4963080;28;19938;-79
2022/07/29 04:34:10;;;;;;;;;;;;;;;;;;4963392;28;20297;-78
2022/07/29 04:36:36;;;;;;;;;;;;;;;;;;4983530;28;19949;-77
2022/07/29 04:39:01;;;;;;;;;;;;;;;;;;4995760;28;20399;-77
2022/07/29 04:41:27;;;;;;;;;;;;;;;;;;4993392;28;19914;-77
2022/07/29 04:43:52;;;;;;;;;;;;;;;;;;4994662;28;20373;-78
2022/07/29 04:46:18;;;;;;;;;;;;;;;;;;4978215;28;19921;-78
2022/07/29 04:48:43;;;;;;;;;;;;;;;;;;4994398;28;19945;-79
2022/07/29 04:51:11;;;;;;;;;;;;;;;;;;4977844;28;22113;-80
2022/07/29 04:53:36;;;;;;;;;;;;;;;;;;4993459;28;19940;-79
2022/07/29 04:56:02;;;;;;;;;;;;;;;;;;4976892;28;19918;-78
2022/07/29 04:58:27;;;;;;;;;;;;;;;;;;4994468;28;20004;-79
2022/07/29 05:00:53;;;;;;;;;;;;;;;;;;4993566;28;19913;-79
2022/07/29 05:03:18;;;;;;;;;;;;;;;;;;4993966;28;19964;-78
2022/07/29 05:05:44;;;;;;;;;;;;;;;;;;4995133;28;19914;-79
2022/07/29 05:08:12;;;;;;;;;;;;;;;;;;4995247;28;19914;-78
2022/07/29 05:10:38;;;;;;;;;;;;;;;;;;4990850;28;19910;-78
2022/07/29 05:13:03;;;;;;;;;;;;;;;;;;4973268;28;20293;-78
2022/07/29 05:15:29;;;;;;;;;;;;;;;;;;4973233;28;20334;-78
2022/07/29 05:17:54;;;;;;;;;;;;;;;;;;4973145;28;20346;-78
2022/07/29 05:20:27;;;;;;;;;;;;;;;;;;4941948;28;19997;-79
2022/07/29 05:22:53;;;;;;;;;;;;;;;;;;4972856;28;19918;-78
2022/07/29 05:25:19;;;;;;;;;;;;;;;;;;4972928;28;20432;-77
2022/07/29 05:27:44;;;;;;;;;;;;;;;;;;4960928;28;20305;-78
2022/07/29 05:30:10;;;;;;;;;;;;;;;;;;4976097;28;19921;-79
2022/07/29 05:32:35;;;;;;;;;;;;;;;;;;4994808;28;19945;-77
2022/07/29 05:35:01;;;;;;;;;;;;;;;;;;4992199;28;20308;-78
2022/07/29 05:37:26;;;;;;;;;;;;;;;;;;4975727;28;19917;-77
2022/07/29 05:39:52;;;;;;;;;;;;;;;;;;4993300;28;20412;-78
2022/07/29 05:42:17;;;;;;;;;;;;;;;;;;4991853;28;20328;-78
2022/07/29 05:44:42;;;;;;;;;;;;;;;;;;4984056;28;19913;-78
2022/07/29 05:47:08;;;;;;;;;;;;;;;;;;4983854;28;19921;-78
2022/07/29 05:49:34;;;;;;;;;;;;;;;;;;4975982;28;19910;-77
2022/07/29 05:51:59;;;;;;;;;;;;;;;;;;4991799;28;19922;-78
2022/07/29 05:54:25;;;;;;;;;;;;;;;;;;4959475;28;20317;-78
2022/07/29 05:56:51;;;;;;;;;;;;;;;;;;4959441;28;19925;-76
2022/07/29 05:59:19;;;;;;;;;;;;;;;;;;4985606;28;20288;-78
2022/07/29 06:01:44;;;;;;;;;;;;;;;;;;4984561;28;19912;-76
2022/07/29 06:04:10;;;;;;;;;;;;;;;;;;4975891;28;20300;-76
2022/07/29 06:06:35;;;;;;;;;;;;;;;;;;4960315;28;20292;-78
2022/07/29 06:09:01;;;;;;;;;;;;;;;;;;4992096;28;20332;-78
2022/07/29 06:11:26;;;;;;;;;;;;;;;;;;4991785;28;19914;-77
2022/07/29 06:13:52;;;;;;;;;;;;;;;;;;4991605;28;20354;-78
2022/07/29 06:16:20;;;;;;;;;;;;;;;;;;4987605;28;20033;-77
2022/07/29 06:18:46;;;;;;;;;;;;;;;;;;4985605;28;20382;-77
2022/07/29 06:21:11;;;;;;;;;;;;;;;;;;4991509;28;19914;-78
2022/07/29 06:23:37;;;;;;;;;;;;;;;;;;4991311;28;19961;-80
2022/07/29 06:26:02;;;;;;;;;;;;;;;;;;4992901;28;19913;-79
2022/07/29 06:28:28;;;;;;;;;;;;;;;;;;4991459;28;19914;-79
2022/07/29 06:30:53;;;;;;;;;;;;;;;;;;4992748;28;19960;-78
2022/07/29 06:33:19;;;;;;;;;;;;;;;;;;4982218;28;20005;-79
2022/07/29 06:35:46;;;;;;;;;;;;;;;;;;4991217;28;20361;-76
2022/07/29 06:38:12;;;;;;;;;;;;;;;;;;4991950;28;20357;-79
2022/07/29 06:43:22;;;;;;;;;;;;;;;;;;4990951;28;19968;-78
2022/07/29 06:45:48;;;;;;;;;;;;;;;;;;4975239;28;20328;-77
2022/07/29 06:48:13;;;;;;;;;;;;;;;;;;4991924;28;19918;-77
2022/07/29 06:50:39;;;;;;;;;;;;;;;;;;4967882;28;19918;-79
2022/07/29 06:53:05;;;;;;;;;;;;;;;;;;4988454;28;19968;-78
2022/07/29 06:55:30;;;;;;;;;;;;;;;;;;4976259;28;20297;-80
2022/07/29 06:57:56;;;;;;;;;;;;;;;;;;4992352;28;19929;-80
2022/07/29 07:00:21;;;;;;;;;;;;;;;;;;4993906;28;20340;-80
2022/07/29 07:02:47;;;;;;;;;;;;;;;;;;4976930;28;19914;-81
2022/07/29 07:05:13;;;;;;;;;;;;;;;;;;4971392;28;19910;-77
2022/07/29 07:07:38;;;;;;;;;;;;;;;;;;4984215;28;20017;-77
2022/07/29 07:10:04;;;;;;;;;;;;;;;;;;4992380;28;19914;-80
2022/07/29 07:12:33;;;;;;;;;;;;;;;;;;4993779;28;19925;-79
2022/07/29 07:14:58;;;;;;;;;;;;;;;;;;4996027;28;19918;-79
2022/07/29 07:17:24;;;;;;;;;;;;;;;;;;4978701;28;19945;-78
2022/07/29 07:19:50;;;;;;;;;;;;;;;;;;4978945;28;19918;-80
2022/07/29 07:22:15;;;;;;;;;;;;;;;;;;4972453;28;19960;-77
2022/07/29 07:24:40;;;;;;;;;;;;;;;;;;4994656;28;20000;-80
2022/07/29 07:27:06;;;;;;;;;;;;;;;;;;4978244;28;19914;-80
2022/07/29 07:29:31;;;;;;;;;;;;;;;;;;4978374;28;19913;-78
2022/07/29 07:31:57;;;;;;;;;;;;;;;;;;4995580;28;19921;-87
2022/07/29 07:34:23;;;;;;;;;;;;;;;;;;4996883;28;19937;-86
2022/07/29 07:36:48;;;;;;;;;;;;;;;;;;4995851;28;20008;-85
2022/07/29 07:39:14;;;;;;;;;;;;;;;;;;4973165;28;19914;-85
2022/07/29 07:41:39;;;;;;;;;;;;;;;;;;4975883;28;19937;-84
2022/07/29 07:44:05;;;;;;;;;;;;;;;;;;4998964;28;20389;-85
2022/07/29 07:46:31;;;;;;;;;;;;;;;;;;4963400;28;19955;-86
2022/07/29 07:48:56;;;;;;;;;;;;;;;;;;4995639;28;20387;-85
2022/07/29 07:51:22;;;;;;;;;;;;;;;;;;4994807;28;20353;-83
2022/07/29 07:53:50;;;;;;;;;;;;;;;;;;4995895;28;20289;-85
2022/07/29 07:56:15;;;;;;;;;;;;;;;;;;4990566;28;19918;-84
2022/07/29 07:58:40;;;;;;;;;;;;;;;;;;4983089;28;19957;-79
2022/07/29 08:01:06;;;;;;;;;;;;;;;;;;4958544;28;19921;-79
2022/07/29 08:03:31;;;;;;;;;;;;;;;;;;4978114;28;20308;-88
2022/07/29 08:05:57;;;;;;;;;;;;;;;;;;4959023;28;19914;-85
2022/07/29 08:08:22;;;;;;;;;;;;;;;;;;4959591;28;19968;-89
2022/07/29 08:10:58;;;;;;;;;;;;;;;;;;4955691;28;20249;-85
2022/07/29 08:13:25;;;;;;;;;;;;;;;;;;4954090;28;19980;-84
2022/07/29 08:16:01;;;;;;;;;;;;;;;;;;4973976;28;19914;-84
2022/07/29 08:18:26;;;;;;;;;;;;;;;;;;4967859;28;19956;-84
2022/07/29 08:20:52;;;;;;;;;;;;;;;;;;4957015;28;19947;-79
2022/07/29 08:23:18;;;;;;;;;;;;;;;;;;4982402;28;20293;-82
2022/07/29 08:25:44;;;;;;;;;;;;;;;;;;4958588;28;19910;-80
2022/07/29 08:28:09;;;;;;;;;;;;;;;;;;4974742;28;19925;-80
2022/07/29 08:30:35;;;;;;;;;;;;;;;;;;4974040;28;19965;-80
2022/07/29 08:33:00;;;;;;;;;;;;;;;;;;4975534;28;19918;-81
2022/07/29 08:35:26;;;;;;;;;;;;;;;;;;4969986;28;19997;-80
2022/07/29 08:37:51;;;;;;;;;;;;;;;;;;4978299;28;19945;-80
2022/07/29 08:40:17;;;;;;;;;;;;;;;;;;4993270;28;19913;-80
2022/07/29 08:42:42;;;;;;;;;;;;;;;;;;4992826;28;19937;-81
2022/07/29 08:45:08;;;;;;;;;;;;;;;;;;4977062;28;19961;-83
2022/07/29 08:47:35;;;;;;;;;;;;;;;;;;4961227;28;19914;-80
2022/07/29 08:50:01;;;;;;;;;;;;;;;;;;4977351;28;19953;-80
2022/07/29 08:52:27;;;;;;;;;;;;;;;;;;4993820;28;19910;-84
2022/07/29 08:54:52;;;;;;;;;;;;;;;;;;4966845;28;19941;-83
2022/07/29 08:57:18;;;;;;;;;;;;;;;;;;4983819;28;19946;-82
2022/07/29 08:59:46;;;;;;;;;;;;;;;;;;4974480;28;19914;-83
2022/07/29 09:02:11;;;;;;;;;;;;;;;;;;4958543;28;19914;-83
2022/07/29 09:04:36;;;;;;;;;;;;;;;;;;4958971;28;20320;-84
2022/07/29 09:07:02;;;;;;;;;;;;;;;;;;4943199;28;19972;-87
2022/07/29 09:09:30;;;;;;;;;;;;;;;;;;4958377;28;20279;-83
2022/07/29 09:11:55;;;;;;;;;;;;;;;;;;4973440;28;20423;-83
2022/07/29 09:14:21;;;;;;;;;;;;;;;;;;4983434;28;19914;-81
2022/07/29 09:16:47;;;;;;;;;;;;;;;;;;4974805;28;19976;-83
2022/07/29 09:19:12;;;;;;;;;;;;;;;;;;4958827;28;19941;-82
2022/07/29 09:24:22;;;;;;;;;;;;;;;;;;4974471;28;19918;-83
2022/07/29 09:26:50;;;;;;;;;;;;;;;;;;4942300;28;20251;-83
2022/07/29 09:29:15;;;;;;;;;;;;;;;;;;4974526;28;19914;-84
2022/07/29 09:31:41;;;;;;;;;;;;;;;;;;4961409;28;19917;-83
2022/07/29 09:34:06;;;;;;;;;;;;;;;;;;4977192;28;19914;-83
2022/07/29 09:36:32;;;;;;;;;;;;;;;;;;4992848;28;19917;-78
2022/07/29 09:38:58;;;;;;;;;;;;;;;;;;4945535;28;20080;-82
2022/07/29 09:41:24;;;;;;;;;;;;;;;;;;4985768;28;19913;-82
2022/07/29 09:43:50;;;;;;;;;;;;;;;;;;4955901;28;19914;-83
2022/07/29 09:46:15;;;;;;;;;;;;;;;;;;4954359;28;20337;-85
2022/07/29 09:48:41;;;;;;;;;;;;;;;;;;4962531;28;19914;-84
2022/07/29 09:51:06;;;;;;;;;;;;;;;;;;4988751;28;20274;-83
2022/07/29 09:53:32;;;;;;;;;;;;;;;;;;4955655;29;19930;-83
2022/07/29 09:55:57;;;;;;;;;;;;;;;;;;4971719;28;20378;-82
2022/07/29 09:58:23;;;;;;;;;;;;;;;;;;4951428;28;20234;-79
2022/07/29 10:00:49;;;;;;;;;;;;;;;;;;4964635;28;19925;-79
2022/07/29 10:03:15;;;;;;;;;;;;;;;;;;4980321;28;20378;-80
2022/07/29 10:05:41;;;;;;;;;;;;;;;;;;4973945;28;19960;-80
2022/07/29 10:08:08;;;;;;;;;;;;;;;;;;4957335;28;19914;-80
2022/07/29 10:10:34;;;;;;;;;;;;;;;;;;4969288;28;19929;-80
2022/07/29 10:12:59;;;;;;;;;;;;;;;;;;4966444;28;19923;-80
2022/07/29 10:15:24;;;;;;;;;;;;;;;;;;4956074;28;19915;-79
2022/07/29 10:17:50;;;;;;;;;;;;;;;;;;4968416;28;19969;-79
2022/07/29 10:20:15;;;;;;;;;;;;;;;;;;4988091;28;19953;-79
2022/07/29 10:22:41;;;;;;;;;;;;;;;;;;4978013;28;20297;-79
2022/07/29 10:25:06;;;;;;;;;;;;;;;;;;4957952;28;19921;-79
2022/07/29 10:27:32;;;;;;;;;;;;;;;;;;4972362;28;19914;-81
2022/07/29 10:29:57;;;;;;;;;;;;;;;;;;4952906;28;19918;-80
2022/07/29 10:32:23;;;;;;;;;;;;;;;;;;4970154;28;19914;-80
2022/07/29 10:34:48;;;;;;;;;;;;;;;;;;4975504;28;19914;-80
2022/07/29 10:37:18;;;;;;;;;;;;;;;;;;4969763;28;19918;-81
2022/07/29 10:39:43;;;;;;;;;;;;;;;;;;4966410;28;19997;-79
2022/07/29 10:42:09;;;;;;;;;;;;;;;;;;4938606;29;20432;-79
2022/07/29 10:44:34;;;;;;;;;;;;;;;;;;4971276;28;19937;-80
2022/07/29 10:46:59;;;;;;;;;;;;;;;;;;4960662;28;20073;-80
2022/07/29 10:49:26;;;;;;;;;;;;;;;;;;4958135;28;20285;-80
2022/07/29 10:51:52;;;;;;;;;;;;;;;;;;4970102;28;19950;-80
2022/07/29 10:54:17;;;;;;;;;;;;;;;;;;4973398;28;20384;-81
2022/07/29 10:56:42;;;;;;;;;;;;;;;;;;4988139;28;20336;-78
2022/07/29 10:59:08;;;;;;;;;;;;;;;;;;4977335;28;19922;-79
2022/07/29 11:01:34;;;;;;;;;;;;;;;;;;4995830;28;19914;-78
2022/07/29 11:03:59;;;;;;;;;;;;;;;;;;4996275;28;19918;-79
2022/07/29 11:06:26;;;;;;;;;;;;;;;;;;4998282;28;19914;-77
2022/07/29 11:08:51;;;;;;;;;;;;;;;;;;4999207;28;19941;-78
2022/07/29 11:11:17;;;;;;;;;;;;;;;;;;4999393;28;20165;-79
2022/07/29 11:13:42;;;;;;;;;;;;;;;;;;4982757;28;19929;-78
2022/07/29 11:16:08;;;;;;;;;;;;;;;;;;4997261;28;19925;-79
2022/07/29 11:18:33;;;;;;;;;;;;;;;;;;4988560;28;20008;-78
2022/07/29 11:20:59;;;;;;;;;;;;;;;;;;4998617;28;19917;-77
2022/07/29 11:23:26;;;;;;;;;;;;;;;;;;4995803;28;19906;-79
2022/07/29 11:25:51;;;;;;;;;;;;;;;;;;5000461;28;19990;-78
2022/07/29 11:28:17;;;;;;;;;;;;;;;;;;4981227;28;19937;-78
2022/07/29 11:30:42;;;;;;;;;;;;;;;;;;4997490;28;20442;-78
2022/07/29 11:33:08;;;;;;;;;;;;;;;;;;4970628;28;20036;-78
2022/07/29 11:35:34;;;;;;;;;;;;;;;;;;4975553;28;19914;-77
2022/07/29 11:38:00;;;;;;;;;;;;;;;;;;4976982;28;19918;-80
2022/07/29 11:40:25;;;;;;;;;;;;;;;;;;4975913;28;19914;-77
2022/07/29 11:42:51;;;;;;;;;;;;;;;;;;4976057;28;20373;-78
2022/07/29 11:45:17;;;;;;;;;;;;;;;;;;4976759;28;19914;-78
2022/07/29 11:47:43;;;;;;;;;;;;;;;;;;4977728;28;20255;-78
2022/07/29 11:50:08;;;;;;;;;;;;;;;;;;4976128;28;20290;-78
2022/07/29 11:52:36;;;;;;;;;;;;;;;;;;4975602;28;20270;-78
2022/07/29 11:55:02;;;;;;;;;;;;;;;;;;4976694;28;19920;-77
2022/07/29 11:57:27;;;;;;;;;;;;;;;;;;4976009;28;19918;-78
2022/07/29 11:59:52;;;;;;;;;;;;;;;;;;4960111;28;19972;-79
2022/07/29 12:02:18;;;;;;;;;;;;;;;;;;4975710;28;19914;-81
2022/07/29 12:04:43;;;;;;;;;;;;;;;;;;4976950;28;20270;-79
2022/07/29 12:07:10;;;;;;;;;;;;;;;;;;4954485;29;19918;-77
2022/07/29 12:09:35;;;;;;;;;;;;;;;;;;4944268;28;19914;-80
2022/07/29 12:12:00;;;;;;;;;;;;;;;;;;4958160;28;19929;-77
2022/07/29 12:14:26;;;;;;;;;;;;;;;;;;4957544;29;19918;-79
2022/07/29 12:16:52;;;;;;;;;;;;;;;;;;4941885;28;19926;-78
2022/07/29 12:19:17;;;;;;;;;;;;;;;;;;4958755;28;20362;-78
2022/07/29 12:21:43;;;;;;;;;;;;;;;;;;4943574;28;20376;-79
2022/07/29 12:24:08;;;;;;;;;;;;;;;;;;4978692;28;19914;-78
2022/07/29 12:26:34;;;;;;;;;;;;;;;;;;4988881;28;20313;-78
2022/07/29 12:28:59;;;;;;;;;;;;;;;;;;4982174;28;19941;-79
2022/07/29 12:31:25;;;;;;;;;;;;;;;;;;4984107;28;20293;-80
2022/07/29 12:33:50;;;;;;;;;;;;;;;;;;4973181;28;19915;-79
2022/07/29 12:36:16;;;;;;;;;;;;;;;;;;4954089;29;20306;-78
2022/07/29 12:38:41;;;;;;;;;;;;;;;;;;4950074;28;20333;-78
2022/07/29 12:41:07;;;;;;;;;;;;;;;;;;4985024;28;19914;-80
2022/07/29 12:43:32;;;;;;;;;;;;;;;;;;4977436;28;20297;-80
2022/07/29 12:46:05;;;;;;;;;;;;;;;;;;4961609;28;19922;-79
2022/07/29 12:48:30;;;;;;;;;;;;;;;;;;4945262;28;19914;-78
2022/07/29 12:50:56;;;;;;;;;;;;;;;;;;4958994;28;19910;-80
2022/07/29 12:53:21;;;;;;;;;;;;;;;;;;4942581;28;20016;-80
2022/07/29 12:55:48;;;;;;;;;;;;;;;;;;4976065;28;19914;-78
2022/07/29 12:58:14;;;;;;;;;;;;;;;;;;4962353;28;19922;-78
2022/07/29 13:00:39;;;;;;;;;;;;;;;;;;4987311;28;19933;-80
2022/07/29 13:03:05;;;;;;;;;;;;;;;;;;4992678;28;19913;-78
2022/07/29 13:05:31;;;;;;;;;;;;;;;;;;4993004;28;19956;-78
2022/07/29 13:07:56;;;;;;;;;;;;;;;;;;4993051;28;19914;-77
2022/07/29 13:10:22;;;;;;;;;;;;;;;;;;4992785;28;20238;-77
2022/07/29 13:12:50;;;;;;;;;;;;;;;;;;4969443;28;19945;-77
2022/07/29 13:15:16;;;;;;;;;;;;;;;;;;4957479;28;19993;-81
2022/07/29 13:17:42;;;;;;;;;;;;;;;;;;4941602;28;20029;-80
2022/07/29 13:20:12;;;;;;;;;;;;;;;;;;4957616;28;19910;-77
2022/07/29 13:22:37;;;;;;;;;;;;;;;;;;4973324;28;19964;-78
2022/07/29 13:25:03;;;;;;;;;;;;;;;;;;4957171;28;20001;-79
2022/07/29 13:27:29;;;;;;;;;;;;;;;;;;4941958;28;19914;-79
2022/07/29 13:29:56;;;;;;;;;;;;;;;;;;4955757;28;19937;-77
2022/07/29 13:32:22;;;;;;;;;;;;;;;;;;4972473;28;20008;-78
2022/07/29 13:34:47;;;;;;;;;;;;;;;;;;4989140;28;20421;-78
2022/07/29 13:37:13;;;;;;;;;;;;;;;;;;4974399;28;19918;-78
2022/07/29 13:39:39;;;;;;;;;;;;;;;;;;4974530;28;19918;-78
2022/07/29 13:42:04;;;;;;;;;;;;;;;;;;4973652;28;19914;-78
2022/07/29 13:44:30;;;;;;;;;;;;;;;;;;4990620;28;19933;-77
2022/07/29 13:46:55;;;;;;;;;;;;;;;;;;4979546;28;19980;-78
2022/07/29 13:49:21;;;;;;;;;;;;;;;;;;4972765;28;20277;-79
2022/07/29 13:51:46;;;;;;;;;;;;;;;;;;4972573;28;19922;-79
2022/07/29 13:54:12;;;;;;;;;;;;;;;;;;4973666;28;19957;-77
2022/07/29 13:56:37;;;;;;;;;;;;;;;;;;4940356;28;19918;-77
2022/07/29 13:59:03;;;;;;;;;;;;;;;;;;4972647;28;19960;-78
2022/07/29 14:01:30;;;;;;;;;;;;;;;;;;4956464;28;19979;-79
2022/07/29 14:03:55;;;;;;;;;;;;;;;;;;4954602;28;19958;-79
2022/07/29 14:06:20;;;;;;;;;;;;;;;;;;4956261;28;19969;-79
2022/07/29 14:08:46;;;;;;;;;;;;;;;;;;4972344;28;19914;-79
2022/07/29 14:11:11;;;;;;;;;;;;;;;;;;4940720;28;19997;-78
2022/07/29 14:13:37;;;;;;;;;;;;;;;;;;4973829;28;19918;-77
2022/07/29 14:16:03;;;;;;;;;;;;;;;;;;4957315;28;19921;-79
2022/07/29 14:18:28;;;;;;;;;;;;;;;;;;4973182;28;19937;-78
2022/07/29 14:20:54;;;;;;;;;;;;;;;;;;4940126;28;19965;-79
2022/07/29 14:23:19;;;;;;;;;;;;;;;;;;4954394;28;19929;-79
2022/07/29 14:25:45;;;;;;;;;;;;;;;;;;4959771;28;19918;-78
2022/07/29 14:28:11;;;;;;;;;;;;;;;;;;4975595;28;19976;-79
2022/07/29 14:30:37;;;;;;;;;;;;;;;;;;4975501;28;19914;-79
2022/07/29 14:33:02;;;;;;;;;;;;;;;;;;4966146;28;20033;-78
2022/07/29 14:35:28;;;;;;;;;;;;;;;;;;4956390;28;20026;-79
2022/07/29 14:37:54;;;;;;;;;;;;;;;;;;4971934;28;19921;-80
2022/07/29 14:40:20;;;;;;;;;;;;;;;;;;4963241;28;19941;-78
2022/07/29 14:42:45;;;;;;;;;;;;;;;;;;4971869;28;20295;-79
2022/07/29 14:45:11;;;;;;;;;;;;;;;;;;4972186;28;19918;-80
2022/07/29 14:47:36;;;;;;;;;;;;;;;;;;4956179;28;20325;-77
2022/07/29 14:50:02;;;;;;;;;;;;;;;;;;4956131;28;19949;-78
2022/07/29 14:52:28;;;;;;;;;;;;;;;;;;4973146;28;20150;-78
2022/07/29 14:54:53;;;;;;;;;;;;;;;;;;4956316;28;20317;-78
2022/07/29 14:57:19;;;;;;;;;;;;;;;;;;4979260;28;20016;-79
2022/07/29 14:59:45;;;;;;;;;;;;;;;;;;4955698;28;20292;-80
2022/07/29 15:02:11;;;;;;;;;;;;;;;;;;4972024;28;19922;-78
2022/07/29 15:04:36;;;;;;;;;;;;;;;;;;4972962;28;20152;-80
2022/07/29 15:07:02;;;;;;;;;;;;;;;;;;4955996;28;19914;-80
2022/07/29 15:09:27;;;;;;;;;;;;;;;;;;4956415;28;19946;-78
2022/07/29 15:11:53;;;;;;;;;;;;;;;;;;4972944;28;19914;-78
2022/07/29 15:14:19;;;;;;;;;;;;;;;;;;4965074;28;20003;-77
2022/07/29 15:16:45;;;;;;;;;;;;;;;;;;4972337;28;19924;-78
2022/07/29 15:19:10;;;;;;;;;;;;;;;;;;4956646;28;19997;-79
2022/07/29 15:21:36;;;;;;;;;;;;;;;;;;4972293;28;19960;-79
2022/07/29 15:24:01;;;;;;;;;;;;;;;;;;4972203;28;19910;-79
2022/07/29 15:26:27;;;;;;;;;;;;;;;;;;4941008;28;20289;-77
2022/07/29 15:28:53;;;;;;;;;;;;;;;;;;4956769;28;20297;-79
2022/07/29 15:31:21;;;;;;;;;;;;;;;;;;4963426;28;20045;-78
2022/07/29 15:33:47;;;;;;;;;;;;;;;;;;4993425;28;19952;-78
2022/07/29 15:36:13;;;;;;;;;;;;;;;;;;4996553;28;19941;-79
2022/07/29 15:38:40;;;;;;;;;;;;;;;;;;4994482;28;20298;-78
2022/07/29 15:41:05;;;;;;;;;;;;;;;;;;4979093;28;20365;-77
2022/07/29 15:43:31;;;;;;;;;;;;;;;;;;4979452;28;19910;-77
2022/07/29 15:48:40;;;;;;;;;;;;;;;;;;4982411;28;19917;-78
2022/07/29 15:51:06;;;;;;;;;;;;;;;;;;4994582;28;19924;-77
2022/07/29 15:53:31;;;;;;;;;;;;;;;;;;4959223;28;19914;-78
2022/07/29 15:55:56;;;;;;;;;;;;;;;;;;4972678;28;19921;-78
2022/07/29 15:58:22;;;;;;;;;;;;;;;;;;4974217;28;19914;-78
2022/07/29 16:00:48;;;;;;;;;;;;;;;;;;4974662;28;19918;-78
2022/07/29 16:03:13;;;;;;;;;;;;;;;;;;4974190;28;19941;-79
2022/07/29 16:05:39;;;;;;;;;;;;;;;;;;4958274;28;19914;-78
2022/07/29 16:08:04;;;;;;;;;;;;;;;;;;4974345;28;19914;-79
2022/07/29 16:10:30;;;;;;;;;;;;;;;;;;4968929;28;20308;-77
2022/07/29 16:12:55;;;;;;;;;;;;;;;;;;4975226;28;19918;-78
2022/07/29 16:15:21;;;;;;;;;;;;;;;;;;4970040;28;19940;-77
2022/07/29 16:17:46;;;;;;;;;;;;;;;;;;4958378;28;19914;-78
2022/07/29 16:20:12;;;;;;;;;;;;;;;;;;4975183;28;20026;-76
2022/07/29 16:22:37;;;;;;;;;;;;;;;;;;4943002;28;19977;-77
2022/07/29 16:25:03;;;;;;;;;;;;;;;;;;4960712;28;20302;-77
2022/07/29 16:27:28;;;;;;;;;;;;;;;;;;4976073;28;19937;-78
2022/07/29 16:29:54;;;;;;;;;;;;;;;;;;4975155;28;19942;-78
2022/07/29 16:32:19;;;;;;;;;;;;;;;;;;4973393;28;20301;-78
2022/07/29 16:34:45;;;;;;;;;;;;;;;;;;4974723;28;19914;-78
2022/07/29 16:37:10;;;;;;;;;;;;;;;;;;4970378;28;19918;-78
2022/07/29 16:39:36;;;;;;;;;;;;;;;;;;4973687;28;19914;-77
2022/07/29 16:42:01;;;;;;;;;;;;;;;;;;4973354;28;19914;-78